sensor_id;sensor_type;location;lat;lon;timestamp;pressure;altitude;pressure_sealevel;temperature;humidity
64253;BME280;50592;52.958;-7.470;2023-04-08T00:00:56;100888.97;;;6.93;100.00
64253;BME280;50592;52.958;-7.470;2023-04-08T00:03:21;100886.13;;;6.97;100.00
64253;BME280;50592;52.958;-7.470;2023-04-08T00:05:47;100885.03;;;6.99;100.00
64253;BME280;50592;52.958;-7.470;2023-04-08T00:08:13;100888.53;;;7.00;100.00
64253;BME280;50592;52.958;-7.470;2023-04-08T00:10:38;100885.66;;;7.03;100.00
64253;BME280;50592;52.958;-7.470;2023-04-08T00:13:04;100881.50;;;7.00;100.00
64253;BME280;50592;52.958;-7.470;2023-04-08T00:15:29;100883.38;;;6.98;100.00
64253;BME280;50592;52.958;-7.470;2023-04-08T00:17:55;100890.00;;;7.04;100.00
64253;BME280;50592;52.958;-7.470;2023-04-08T00:20:22;100888.19;;;7.04;100.00
64253;BME280;50592;52.958;-7.470;2023-04-08T00:22:48;100890.19;;;7.01;100.00
64253;BME280;50592;52.958;-7.470;2023-04-08T00:25:13;100884.00;;;7.02;100.00
64253;BME280;50592;52.958;-7.470;2023-04-08T00:27:39;100881.25;;;7.03;100.00
64253;BME280;50592;52.958;-7.470;2023-04-08T00:30:05;100879.59;;;7.02;100.00
64253;BME280;50592;52.958;-7.470;2023-04-08T00:32:31;100872.41;;;7.04;100.00
64253;BME280;50592;52.958;-7.470;2023-04-08T00:34:57;100876.84;;;7.04;100.00
64253;BME280;50592;52.958;-7.470;2023-04-08T00:37:23;100876.84;;;7.04;100.00
64253;BME280;50592;52.958;-7.470;2023-04-08T00:39:49;100879.38;;;7.05;100.00
64253;BME280;50592;52.958;-7.470;2023-04-08T00:42:15;100885.13;;;7.11;100.00
64253;BME280;50592;52.958;-7.470;2023-04-08T00:44:41;100885.75;;;7.14;100.00
64253;BME280;50592;52.958;-7.470;2023-04-08T00:47:10;100888.03;;;7.19;100.00
64253;BME280;50592;52.958;-7.470;2023-04-08T00:49:36;100889.59;;;7.22;100.00
64253;BME280;50592;52.958;-7.470;2023-04-08T00:52:02;100881.34;;;7.15;100.00
64253;BME280;50592;52.958;-7.470;2023-04-08T00:54:27;100879.88;;;7.11;100.00
64253;BME280;50592;52.958;-7.470;2023-04-08T00:56:54;100879.97;;;7.09;100.00
64253;BME280;50592;52.958;-7.470;2023-04-08T00:59:21;100880.19;;;7.06;100.00
64253;BME280;50592;52.958;-7.470;2023-04-08T01:09:55;100888.84;;;6.95;100.00
64253;BME280;50592;52.958;-7.470;2023-04-08T01:12:24;100888.63;;;6.98;100.00
64253;BME280;50592;52.958;-7.470;2023-04-08T01:14:56;100887.16;;;7.07;100.00
64253;BME280;50592;52.958;-7.470;2023-04-08T01:17:23;100891.75;;;7.16;100.00
64253;BME280;50592;52.958;-7.470;2023-04-08T01:19:49;100892.13;;;7.23;100.00
64253;BME280;50592;52.958;-7.470;2023-04-08T01:22:22;100898.09;;;7.25;100.00
64253;BME280;50592;52.958;-7.470;2023-04-08T01:24:52;100899.06;;;7.24;100.00
64253;BME280;50592;52.958;-7.470;2023-04-08T01:27:22;100901.81;;;7.23;100.00
64253;BME280;50592;52.958;-7.470;2023-04-08T01:29:48;100886.97;;;7.22;100.00
64253;BME280;50592;52.958;-7.470;2023-04-08T01:32:14;100890.22;;;7.25;100.00
64253;BME280;50592;52.958;-7.470;2023-04-08T01:34:40;100899.78;;;7.26;100.00
64253;BME280;50592;52.958;-7.470;2023-04-08T01:37:07;100893.81;;;7.24;100.00
64253;BME280;50592;52.958;-7.470;2023-04-08T01:39:33;100893.31;;;7.19;100.00
64253;BME280;50592;52.958;-7.470;2023-04-08T01:41:59;100895.53;;;7.12;100.00
64253;BME280;50592;52.958;-7.470;2023-04-08T01:44:26;100895.16;;;7.05;100.00
64253;BME280;50592;52.958;-7.470;2023-04-08T01:46:52;100893.88;;;6.98;100.00
64253;BME280;50592;52.958;-7.470;2023-04-08T01:49:19;100904.63;;;6.95;100.00
64253;BME280;50592;52.958;-7.470;2023-04-08T01:51:47;100904.84;;;6.92;100.00
64253;BME280;50592;52.958;-7.470;2023-04-08T01:54:13;100898.34;;;6.85;100.00
64253;BME280;50592;52.958;-7.470;2023-04-08T01:56:40;100901.91;;;6.83;100.00
64253;BME280;50592;52.958;-7.470;2023-04-08T01:59:08;100896.06;;;6.80;100.00
64253;BME280;50592;52.958;-7.470;2023-04-08T02:01:34;100900.47;;;6.79;100.00
64253;BME280;50592;52.958;-7.470;2023-04-08T02:04:00;100899.72;;;6.77;100.00
64253;BME280;50592;52.958;-7.470;2023-04-08T02:06:27;100899.00;;;6.75;100.00
64253;BME280;50592;52.958;-7.470;2023-04-08T02:08:54;100897.09;;;6.77;100.00
64253;BME280;50592;52.958;-7.470;2023-04-08T02:11:20;100892.56;;;6.79;100.00
64253;BME280;50592;52.958;-7.470;2023-04-08T02:13:45;100902.03;;;6.82;100.00
64253;BME280;50592;52.958;-7.470;2023-04-08T02:16:28;100888.88;;;6.82;100.00
64253;BME280;50592;52.958;-7.470;2023-04-08T02:18:57;100887.31;;;6.79;100.00
64253;BME280;50592;52.958;-7.470;2023-04-08T02:21:26;100879.66;;;6.76;100.00
64253;BME280;50592;52.958;-7.470;2023-04-08T02:23:55;100892.78;;;6.76;100.00
64253;BME280;50592;52.958;-7.470;2023-04-08T02:26:22;100888.56;;;6.74;100.00
64253;BME280;50592;52.958;-7.470;2023-04-08T02:28:49;100886.06;;;6.72;100.00
64253;BME280;50592;52.958;-7.470;2023-04-08T02:31:15;100879.97;;;6.72;100.00
64253;BME280;50592;52.958;-7.470;2023-04-08T02:33:44;100883.31;;;6.74;100.00
64253;BME280;50592;52.958;-7.470;2023-04-08T02:36:10;100876.50;;;6.71;100.00
64253;BME280;50592;52.958;-7.470;2023-04-08T02:38:37;100876.50;;;6.71;100.00
64253;BME280;50592;52.958;-7.470;2023-04-08T02:41:02;100875.66;;;6.70;100.00
64253;BME280;50592;52.958;-7.470;2023-04-08T02:43:28;100876.50;;;6.71;100.00
64253;BME280;50592;52.958;-7.470;2023-04-08T02:45:57;100879.25;;;6.69;100.00
64253;BME280;50592;52.958;-7.470;2023-04-08T02:48:24;100869.69;;;6.68;100.00
64253;BME280;50592;52.958;-7.470;2023-04-08T02:50:50;100868.94;;;6.66;100.00
64253;BME280;50592;52.958;-7.470;2023-04-08T02:53:15;100875.28;;;6.64;100.00
64253;BME280;50592;52.958;-7.470;2023-04-08T02:55:41;100875.50;;;6.61;100.00
64253;BME280;50592;52.958;-7.470;2023-04-08T02:58:07;100874.53;;;6.62;100.00
64253;BME280;50592;52.958;-7.470;2023-04-08T03:00:32;100872.22;;;6.57;100.00
64253;BME280;50592;52.958;-7.470;2023-04-08T03:02:58;100874.22;;;6.53;100.00
64253;BME280;50592;52.958;-7.470;2023-04-08T03:05:24;100874.44;;;6.50;100.00
64253;BME280;50592;52.958;-7.470;2023-04-08T03:07:50;100872.56;;;6.52;100.00
64253;BME280;50592;52.958;-7.470;2023-04-08T03:10:16;100872.44;;;6.54;100.00
64253;BME280;50592;52.958;-7.470;2023-04-08T03:12:41;100884.00;;;6.51;100.00
64253;BME280;50592;52.958;-7.470;2023-04-08T03:15:07;100884.94;;;6.50;100.00
64253;BME280;50592;52.958;-7.470;2023-04-08T03:17:33;100883.28;;;6.49;100.00
64253;BME280;50592;52.958;-7.470;2023-04-08T03:19:59;100878.88;;;6.50;100.00
64253;BME280;50592;52.958;-7.470;2023-04-08T03:22:25;100877.28;;;6.47;100.00
64253;BME280;50592;52.958;-7.470;2023-04-08T03:24:50;100880.88;;;6.46;100.00
64253;BME280;50592;52.958;-7.470;2023-04-08T03:27:16;100886.00;;;6.48;100.00
64253;BME280;50592;52.958;-7.470;2023-04-08T03:29:41;100888.75;;;6.46;100.00
64253;BME280;50592;52.958;-7.470;2023-04-08T03:32:07;100894.72;;;6.48;100.00
64253;BME280;50592;52.958;-7.470;2023-04-08T03:34:33;100872.13;;;6.45;100.00
64253;BME280;50592;52.958;-7.470;2023-04-08T03:36:59;100880.22;;;6.42;100.00
64253;BME280;50592;52.958;-7.470;2023-04-08T03:39:25;100880.75;;;6.48;100.00
64253;BME280;50592;52.958;-7.470;2023-04-08T03:41:51;100882.09;;;6.53;100.00
64253;BME280;50592;52.958;-7.470;2023-04-08T03:44:16;100875.38;;;6.62;100.00
64253;BME280;50592;52.958;-7.470;2023-04-08T03:46:42;100874.94;;;6.68;100.00
64253;BME280;50592;52.958;-7.470;2023-04-08T03:49:07;100880.69;;;6.74;100.00
64253;BME280;50592;52.958;-7.470;2023-04-08T03:51:33;100883.94;;;6.77;100.00
64253;BME280;50592;52.958;-7.470;2023-04-08T03:53:59;100882.69;;;6.83;100.00
64253;BME280;50592;52.958;-7.470;2023-04-08T03:56:24;100884.88;;;6.89;100.00
64253;BME280;50592;52.958;-7.470;2023-04-08T03:58:50;100899.16;;;6.98;100.00
64253;BME280;50592;52.958;-7.470;2023-04-08T04:01:16;100897.66;;;7.07;100.00
64253;BME280;50592;52.958;-7.470;2023-04-08T04:03:41;100894.47;;;7.15;100.00
64253;BME280;50592;52.958;-7.470;2023-04-08T04:06:07;100885.19;;;7.22;100.00
64253;BME280;50592;52.958;-7.470;2023-04-08T04:08:33;100878.84;;;7.25;100.00
64253;BME280;50592;52.958;-7.470;2023-04-08T04:10:58;100884.22;;;7.23;100.00
64253;BME280;50592;52.958;-7.470;2023-04-08T04:13:24;100865.00;;;7.23;100.00
64253;BME280;50592;52.958;-7.470;2023-04-08T04:15:50;100868.56;;;7.22;100.00
64253;BME280;50592;52.958;-7.470;2023-04-08T04:18:15;100856.59;;;7.17;100.00
64253;BME280;50592;52.958;-7.470;2023-04-08T04:20:41;100859.47;;;7.14;100.00
64253;BME280;50592;52.958;-7.470;2023-04-08T04:23:07;100844.66;;;7.13;100.00
64253;BME280;50592;52.958;-7.470;2023-04-08T04:25:33;100852.88;;;7.09;100.00
64253;BME280;50592;52.958;-7.470;2023-04-08T04:27:59;100845.31;;;7.04;100.00
64253;BME280;50592;52.958;-7.470;2023-04-08T04:30:25;100855.94;;;7.02;100.00
64253;BME280;50592;52.958;-7.470;2023-04-08T04:32:52;100849.09;;;7.00;100.00
64253;BME280;50592;52.958;-7.470;2023-04-08T04:35:17;100858.06;;;6.97;100.00
64253;BME280;50592;52.958;-7.470;2023-04-08T04:37:43;100849.22;;;6.98;100.00
64253;BME280;50592;52.958;-7.470;2023-04-08T04:40:08;100847.44;;;6.99;100.00
64253;BME280;50592;52.958;-7.470;2023-04-08T04:42:34;100847.44;;;6.99;100.00
64253;BME280;50592;52.958;-7.470;2023-04-08T04:45:00;100851.31;;;6.93;100.00
64253;BME280;50592;52.958;-7.470;2023-04-08T04:47:26;100850.63;;;6.91;100.00
64253;BME280;50592;52.958;-7.470;2023-04-08T04:49:51;100864.47;;;6.93;100.00
64253;BME280;50592;52.958;-7.470;2023-04-08T04:52:17;100863.31;;;6.97;100.00
64253;BME280;50592;52.958;-7.470;2023-04-08T04:54:42;100858.66;;;7.01;100.00
64253;BME280;50592;52.958;-7.470;2023-04-08T04:57:08;100863.81;;;7.02;100.00
64253;BME280;50592;52.958;-7.470;2023-04-08T04:59:35;100853.50;;;6.99;100.00
64253;BME280;50592;52.958;-7.470;2023-04-08T05:02:01;100861.38;;;6.99;100.00
64253;BME280;50592;52.958;-7.470;2023-04-08T05:04:26;100854.47;;;6.98;100.00
64253;BME280;50592;52.958;-7.470;2023-04-08T05:06:52;100866.75;;;6.98;100.00
64253;BME280;50592;52.958;-7.470;2023-04-08T05:09:18;100863.09;;;7.00;100.00
64253;BME280;50592;52.958;-7.470;2023-04-08T05:11:43;100870.97;;;7.00;100.00
64253;BME280;50592;52.958;-7.470;2023-04-08T05:14:09;100876.13;;;7.02;100.00
64253;BME280;50592;52.958;-7.470;2023-04-08T05:16:35;100868.34;;;7.00;100.00
64253;BME280;50592;52.958;-7.470;2023-04-08T05:19:00;100877.28;;;6.98;100.00
64253;BME280;50592;52.958;-7.470;2023-04-08T05:21:26;100870.47;;;6.95;100.00
64253;BME280;50592;52.958;-7.470;2023-04-08T05:23:52;100872.47;;;6.91;100.00
64253;BME280;50592;52.958;-7.470;2023-04-08T05:26:19;100863.00;;;6.89;100.00
64253;BME280;50592;52.958;-7.470;2023-04-08T05:28:46;100871.00;;;6.87;100.00
64253;BME280;50592;52.958;-7.470;2023-04-08T05:31:14;100869.56;;;6.83;100.00
64253;BME280;50592;52.958;-7.470;2023-04-08T05:33:39;100878.47;;;6.80;100.00
64253;BME280;50592;52.958;-7.470;2023-04-08T05:36:05;100885.53;;;6.80;100.00
64253;BME280;50592;52.958;-7.470;2023-04-08T05:38:31;100888.16;;;6.80;100.00
64253;BME280;50592;52.958;-7.470;2023-04-08T05:40:56;100889.00;;;6.80;100.00
64253;BME280;50592;52.958;-7.470;2023-04-08T05:43:22;100890.81;;;6.80;100.00
64253;BME280;50592;52.958;-7.470;2023-04-08T05:45:47;100895.09;;;6.81;100.00
64253;BME280;50592;52.958;-7.470;2023-04-08T05:48:13;100895.09;;;6.81;100.00
64253;BME280;50592;52.958;-7.470;2023-04-08T05:50:39;100894.13;;;6.82;100.00
64253;BME280;50592;52.958;-7.470;2023-04-08T05:53:04;100892.56;;;6.79;100.00
64253;BME280;50592;52.958;-7.470;2023-04-08T05:55:30;100899.81;;;6.76;100.00
64253;BME280;50592;52.958;-7.470;2023-04-08T05:57:55;100900.16;;;6.71;100.00
64253;BME280;50592;52.958;-7.470;2023-04-08T06:00:21;100907.19;;;6.70;100.00
64253;BME280;50592;52.958;-7.470;2023-04-08T06:02:47;100898.59;;;6.68;100.00
64253;BME280;50592;52.958;-7.470;2023-04-08T06:05:13;100898.47;;;6.70;100.00
64253;BME280;50592;52.958;-7.470;2023-04-08T06:07:38;100901.09;;;6.70;100.00
64253;BME280;50592;52.958;-7.470;2023-04-08T06:10:04;100909.00;;;6.70;100.00
64253;BME280;50592;52.958;-7.470;2023-04-08T06:12:33;100922.13;;;6.70;100.00
64253;BME280;50592;52.958;-7.470;2023-04-08T06:14:59;100918.75;;;6.68;100.00
64253;BME280;50592;52.958;-7.470;2023-04-08T06:17:25;100917.81;;;6.69;100.00
64253;BME280;50592;52.958;-7.470;2023-04-08T06:19:50;100912.53;;;6.69;100.00
64253;BME280;50592;52.958;-7.470;2023-04-08T06:22:16;100922.22;;;6.68;100.00
64253;BME280;50592;52.958;-7.470;2023-04-08T06:24:42;100925.34;;;6.74;100.00
64253;BME280;50592;52.958;-7.470;2023-04-08T06:27:07;100918.00;;;6.79;100.00
64253;BME280;50592;52.958;-7.470;2023-04-08T06:29:33;100913.28;;;6.84;100.00
64253;BME280;50592;52.958;-7.470;2023-04-08T06:31:59;100920.81;;;6.89;100.00
64253;BME280;50592;52.958;-7.470;2023-04-08T06:34:24;100916.31;;;6.91;100.00
64253;BME280;50592;52.958;-7.470;2023-04-08T06:36:50;100914.06;;;6.98;100.00
64253;BME280;50592;52.958;-7.470;2023-04-08T06:39:15;100912.81;;;7.03;100.00
64253;BME280;50592;52.958;-7.470;2023-04-08T06:41:41;100922.13;;;7.07;100.00
64253;BME280;50592;52.958;-7.470;2023-04-08T06:44:24;100918.38;;;7.12;100.00
64253;BME280;50592;52.958;-7.470;2023-04-08T06:46:50;100922.44;;;7.16;100.00
64253;BME280;50592;52.958;-7.470;2023-04-08T06:49:15;100923.19;;;7.18;100.00
64253;BME280;50592;52.958;-7.470;2023-04-08T06:51:41;100926.41;;;7.22;100.00
64253;BME280;50592;52.958;-7.470;2023-04-08T06:54:06;100922.28;;;7.30;100.00
64253;BME280;50592;52.958;-7.470;2023-04-08T06:56:34;100922.13;;;7.45;100.00
64253;BME280;50592;52.958;-7.470;2023-04-08T06:59:00;100919.34;;;7.60;100.00
64253;BME280;50592;52.958;-7.470;2023-04-08T07:01:26;100913.28;;;7.82;100.00
64253;BME280;50592;52.958;-7.470;2023-04-08T07:03:51;100916.13;;;8.03;100.00
64253;BME280;50592;52.958;-7.470;2023-04-08T07:06:17;100917.56;;;8.19;100.00
64253;BME280;50592;52.958;-7.470;2023-04-08T07:08:42;100920.00;;;8.34;100.00
64253;BME280;50592;52.958;-7.470;2023-04-08T07:11:08;100922.41;;;8.37;100.00
64253;BME280;50592;52.958;-7.470;2023-04-08T07:13:34;100921.44;;;8.49;100.00
64253;BME280;50592;52.958;-7.470;2023-04-08T07:15:59;100919.34;;;8.54;100.00
64253;BME280;50592;52.958;-7.470;2023-04-08T07:18:25;100922.06;;;8.53;100.00
64253;BME280;50592;52.958;-7.470;2023-04-08T07:20:51;100930.72;;;8.55;100.00
64253;BME280;50592;52.958;-7.470;2023-04-08T07:23:18;100931.03;;;8.50;100.00
64253;BME280;50592;52.958;-7.470;2023-04-08T07:25:44;100927.44;;;8.51;100.00
64253;BME280;50592;52.958;-7.470;2023-04-08T07:28:09;100939.31;;;8.46;100.00
64253;BME280;50592;52.958;-7.470;2023-04-08T07:30:35;100939.75;;;8.39;100.00
64253;BME280;50592;52.958;-7.470;2023-04-08T07:33:01;100938.56;;;8.43;100.00
64253;BME280;50592;52.958;-7.470;2023-04-08T07:35:27;100940.25;;;8.44;100.00
64253;BME280;50592;52.958;-7.470;2023-04-08T07:37:52;100940.13;;;8.46;100.00
64253;BME280;50592;52.958;-7.470;2023-04-08T07:40:19;100935.34;;;8.51;100.00
64253;BME280;50592;52.958;-7.470;2023-04-08T07:42:45;100947.34;;;8.55;100.00
64253;BME280;50592;52.958;-7.470;2023-04-08T07:45:10;100947.47;;;8.65;100.00
64253;BME280;50592;52.958;-7.470;2023-04-08T07:47:36;100944.38;;;8.83;100.00
64253;BME280;50592;52.958;-7.470;2023-04-08T07:50:02;100949.28;;;8.99;100.00
64253;BME280;50592;52.958;-7.470;2023-04-08T07:52:31;100954.63;;;9.21;100.00
64253;BME280;50592;52.958;-7.470;2023-04-08T07:54:56;100952.34;;;9.27;100.00
64253;BME280;50592;52.958;-7.470;2023-04-08T07:57:22;100964.03;;;9.46;100.00
64253;BME280;50592;52.958;-7.470;2023-04-08T07:59:48;100959.84;;;9.55;100.00
64253;BME280;50592;52.958;-7.470;2023-04-08T08:02:13;100958.34;;;9.62;100.00
64253;BME280;50592;52.958;-7.470;2023-04-08T08:04:39;100963.88;;;9.59;100.00
64253;BME280;50592;52.958;-7.470;2023-04-08T08:07:05;100963.38;;;9.65;100.00
64253;BME280;50592;52.958;-7.470;2023-04-08T08:09:30;100958.91;;;9.77;100.00
64253;BME280;50592;52.958;-7.470;2023-04-08T08:11:56;100963.91;;;9.92;100.00
64253;BME280;50592;52.958;-7.470;2023-04-08T08:14:21;100959.78;;;9.99;100.00
64253;BME280;50592;52.958;-7.470;2023-04-08T08:16:47;100952.88;;;10.08;100.00
64253;BME280;50592;52.958;-7.470;2023-04-08T08:19:14;100951.34;;;10.05;100.00
64253;BME280;50592;52.958;-7.470;2023-04-08T08:21:39;100964.53;;;10.05;100.00
64253;BME280;50592;52.958;-7.470;2023-04-08T08:24:05;100970.75;;;10.16;100.00
64253;BME280;50592;52.958;-7.470;2023-04-08T08:26:33;100963.31;;;10.31;100.00
64253;BME280;50592;52.958;-7.470;2023-04-08T08:28:59;100948.50;;;10.40;100.00
64253;BME280;50592;52.958;-7.470;2023-04-08T08:31:25;100961.78;;;10.50;100.00
64253;BME280;50592;52.958;-7.470;2023-04-08T08:33:51;100954.50;;;10.63;100.00
64253;BME280;50592;52.958;-7.470;2023-04-08T08:36:16;100954.94;;;10.69;100.00
64253;BME280;50592;52.958;-7.470;2023-04-08T08:38:42;100959.13;;;10.71;100.00
64253;BME280;50592;52.958;-7.470;2023-04-08T08:41:08;100960.25;;;10.78;100.00
64253;BME280;50592;52.958;-7.470;2023-04-08T08:43:34;100952.97;;;10.71;100.00
64253;BME280;50592;52.958;-7.470;2023-04-08T08:46:00;100967.63;;;10.75;100.00
64253;BME280;50592;52.958;-7.470;2023-04-08T08:48:26;100953.38;;;10.66;100.00
64253;BME280;50592;52.958;-7.470;2023-04-08T08:50:51;100960.03;;;10.60;100.00
64253;BME280;50592;52.958;-7.470;2023-04-08T08:53:17;100964.34;;;10.61;100.00
64253;BME280;50592;52.958;-7.470;2023-04-08T08:55:43;100958.66;;;10.66;100.00
64253;BME280;50592;52.958;-7.470;2023-04-08T08:58:09;100959.66;;;10.65;100.00
64253;BME280;50592;52.958;-7.470;2023-04-08T09:00:36;100964.41;;;10.71;100.00
64253;BME280;50592;52.958;-7.470;2023-04-08T09:03:18;100965.25;;;10.72;100.00
64253;BME280;50592;52.958;-7.470;2023-04-08T09:05:54;100966.19;;;10.71;100.00
64253;BME280;50592;52.958;-7.470;2023-04-08T09:08:30;100961.22;;;10.77;100.00
64253;BME280;50592;52.958;-7.470;2023-04-08T09:13:41;100967.38;;;10.88;100.00
64253;BME280;50592;52.958;-7.470;2023-04-08T09:16:08;100971.19;;;10.95;100.00
64253;BME280;50592;52.958;-7.470;2023-04-08T09:18:34;100963.16;;;11.07;100.00
64253;BME280;50592;52.958;-7.470;2023-04-08T09:21:01;100972.47;;;11.11;100.00
64253;BME280;50592;52.958;-7.470;2023-04-08T09:26:12;100969.38;;;10.96;100.00
64253;BME280;50592;52.958;-7.470;2023-04-08T09:28:38;100966.28;;;10.90;100.00
64253;BME280;50592;52.958;-7.470;2023-04-08T09:31:23;100964.19;;;10.84;100.00
64253;BME280;50592;52.958;-7.470;2023-04-08T09:33:50;100965.72;;;10.87;100.00
64253;BME280;50592;52.958;-7.470;2023-04-08T09:36:15;100963.47;;;10.82;100.00
64253;BME280;50592;52.958;-7.470;2023-04-08T09:38:42;100961.97;;;10.89;100.00
64253;BME280;50592;52.958;-7.470;2023-04-08T09:41:07;100958.91;;;10.94;100.00
64253;BME280;50592;52.958;-7.470;2023-04-08T09:43:40;100962.03;;;11.09;100.00
64253;BME280;50592;52.958;-7.470;2023-04-08T09:46:07;100963.56;;;11.12;100.00
64253;BME280;50592;52.958;-7.470;2023-04-08T09:48:39;100955.25;;;11.26;100.00
64253;BME280;50592;52.958;-7.470;2023-04-08T09:51:07;100967.53;;;11.27;100.00
64253;BME280;50592;52.958;-7.470;2023-04-08T09:53:37;100961.66;;;11.24;100.00
64253;BME280;50592;52.958;-7.470;2023-04-08T09:56:06;100963.28;;;11.15;100.00
64253;BME280;50592;52.958;-7.470;2023-04-08T09:58:44;100962.59;;;11.13;100.00
64253;BME280;50592;52.958;-7.470;2023-04-08T10:01:13;100954.53;;;11.14;100.00
64253;BME280;50592;52.958;-7.470;2023-04-08T10:03:46;100959.16;;;11.22;100.00
64253;BME280;50592;52.958;-7.470;2023-04-08T10:06:12;100956.94;;;11.37;100.00
64253;BME280;50592;52.958;-7.470;2023-04-08T10:08:39;100948.47;;;11.53;100.00
64253;BME280;50592;52.958;-7.470;2023-04-08T10:11:06;100953.06;;;11.61;100.00
64253;BME280;50592;52.958;-7.470;2023-04-08T10:13:32;100944.56;;;11.77;100.00
64253;BME280;50592;52.958;-7.470;2023-04-08T10:18:42;100943.19;;;11.73;100.00
64253;BME280;50592;52.958;-7.470;2023-04-08T10:23:53;100957.53;;;11.51;100.00
64253;BME280;50592;52.958;-7.470;2023-04-08T10:26:30;100950.13;;;11.45;100.00
64253;BME280;50592;52.958;-7.470;2023-04-08T10:31:39;100950.81;;;11.37;100.00
64253;BME280;50592;52.958;-7.470;2023-04-08T10:34:17;100944.78;;;11.25;100.00
64253;BME280;50592;52.958;-7.470;2023-04-08T10:36:43;100952.88;;;11.23;100.00
64253;BME280;50592;52.958;-7.470;2023-04-08T10:39:09;100946.72;;;11.23;100.00
64253;BME280;50592;52.958;-7.470;2023-04-08T10:41:40;100956.09;;;11.27;100.00
64253;BME280;50592;52.958;-7.470;2023-04-08T10:44:14;100951.50;;;11.29;100.00
64253;BME280;50592;52.958;-7.470;2023-04-08T10:46:40;100942.19;;;11.35;100.00
64253;BME280;50592;52.958;-7.470;2023-04-08T10:49:05;100953.47;;;11.37;100.00
64253;BME280;50592;52.958;-7.470;2023-04-08T10:51:33;100957.63;;;11.39;100.00
64253;BME280;50592;52.958;-7.470;2023-04-08T10:54:33;100946.06;;;11.40;100.00
64253;BME280;50592;52.958;-7.470;2023-04-08T10:56:51;100952.72;;;11.25;100.00
64253;BME280;50592;52.958;-7.470;2023-04-08T10:59:28;100945.91;;;11.22;100.00
64253;BME280;50592;52.958;-7.470;2023-04-08T11:01:54;100943.81;;;11.16;100.00
64253;BME280;50592;52.958;-7.470;2023-04-08T11:04:19;100939.63;;;11.13;100.00
64253;BME280;50592;52.958;-7.470;2023-04-08T11:06:47;100944.50;;;11.08;100.00
64253;BME280;50592;52.958;-7.470;2023-04-08T11:09:14;100945.19;;;11.10;100.00
64253;BME280;50592;52.958;-7.470;2023-04-08T11:11:41;100942.00;;;11.07;100.00
64253;BME280;50592;52.958;-7.470;2023-04-08T11:14:07;100950.88;;;11.06;100.00
64253;BME280;50592;52.958;-7.470;2023-04-08T11:16:33;100946.97;;;11.00;100.00
64253;BME280;50592;52.958;-7.470;2023-04-08T11:19:00;100947.53;;;11.03;100.00
64253;BME280;50592;52.958;-7.470;2023-04-08T11:21:27;100956.16;;;11.06;100.00
64253;BME280;50592;52.958;-7.470;2023-04-08T11:23:54;100939.75;;;11.12;100.00
64253;BME280;50592;52.958;-7.470;2023-04-08T11:26:20;100948.53;;;11.12;100.00
64253;BME280;50592;52.958;-7.470;2023-04-08T11:28:46;100948.13;;;11.17;100.00
64253;BME280;50592;52.958;-7.470;2023-04-08T11:31:15;100941.84;;;11.18;100.00
64253;BME280;50592;52.958;-7.470;2023-04-08T11:33:44;100943.00;;;11.25;100.00
64253;BME280;50592;52.958;-7.470;2023-04-08T11:36:10;100943.84;;;11.26;100.00
64253;BME280;50592;52.958;-7.470;2023-04-08T11:38:40;100930.31;;;11.39;100.00
64253;BME280;50592;52.958;-7.470;2023-04-08T11:41:06;100940.22;;;11.47;100.00
64253;BME280;50592;52.958;-7.470;2023-04-08T11:43:31;100938.00;;;11.52;100.00
64253;BME280;50592;52.958;-7.470;2023-04-08T11:45:57;100939.84;;;11.51;100.00
64253;BME280;50592;52.958;-7.470;2023-04-08T11:48:23;100936.47;;;11.49;100.00
64253;BME280;50592;52.958;-7.470;2023-04-08T11:50:49;100933.44;;;11.64;100.00
64253;BME280;50592;52.958;-7.470;2023-04-08T11:53:26;100936.63;;;11.77;100.00
64253;BME280;50592;52.958;-7.470;2023-04-08T11:55:53;100934.25;;;11.84;100.00
64253;BME280;50592;52.958;-7.470;2023-04-08T11:58:18;100931.03;;;11.90;100.00
64253;BME280;50592;52.958;-7.470;2023-04-08T12:00:44;100924.47;;;11.95;100.00
64253;BME280;50592;52.958;-7.470;2023-04-08T12:03:10;100932.16;;;11.88;100.00
64253;BME280;50592;52.958;-7.470;2023-04-08T12:05:36;100932.16;;;11.88;100.00
64253;BME280;50592;52.958;-7.470;2023-04-08T12:08:01;100936.63;;;11.87;100.00
64253;BME280;50592;52.958;-7.470;2023-04-08T12:10:27;100929.91;;;11.93;100.00
64253;BME280;50592;52.958;-7.470;2023-04-08T12:12:53;100929.47;;;11.98;100.00
64253;BME280;50592;52.958;-7.470;2023-04-08T12:15:19;100933.84;;;12.09;100.00
64253;BME280;50592;52.958;-7.470;2023-04-08T12:17:45;100929.78;;;12.14;100.00
64253;BME280;50592;52.958;-7.470;2023-04-08T12:20:11;100920.94;;;12.34;100.00
64253;BME280;50592;52.958;-7.470;2023-04-08T12:22:36;100919.50;;;12.49;100.00
64253;BME280;50592;52.958;-7.470;2023-04-08T12:25:02;100919.50;;;12.49;100.00
64253;BME280;50592;52.958;-7.470;2023-04-08T12:27:29;100922.00;;;12.51;100.00
64253;BME280;50592;52.958;-7.470;2023-04-08T12:29:54;100915.47;;;12.45;100.00
64253;BME280;50592;52.958;-7.470;2023-04-08T12:32:20;100914.47;;;12.46;100.00
64253;BME280;50592;52.958;-7.470;2023-04-08T12:34:46;100907.59;;;12.53;100.00
64253;BME280;50592;52.958;-7.470;2023-04-08T12:37:12;100904.00;;;12.55;100.00
64253;BME280;50592;52.958;-7.470;2023-04-08T12:39:37;100898.97;;;12.51;100.00
64253;BME280;50592;52.958;-7.470;2023-04-08T12:42:03;100897.41;;;12.59;100.00
64253;BME280;50592;52.958;-7.470;2023-04-08T12:44:29;100897.81;;;12.64;100.00
64253;BME280;50592;52.958;-7.470;2023-04-08T12:46:55;100895.16;;;12.64;100.00
64253;BME280;50592;52.958;-7.470;2023-04-08T12:49:23;100905.22;;;12.60;100.00
64253;BME280;50592;52.958;-7.470;2023-04-08T12:51:48;100900.06;;;12.59;100.00
64253;BME280;50592;52.958;-7.470;2023-04-08T12:54:14;100900.06;;;12.59;100.00